P. B. Shah — WDB8609 — position and weather

sailwx.info

Track history (hours):
 
Tides and Currents Weather Stations Pressure Air Temp Water Temp Dewpoint Dewpoint Depression Visibility Wind Speed Wind Dir Waves Ship Positions

P. B. Shah

Owner: INGRAM BARGE COMPANY, Nashville, TN. More information available from US FCC via Universal Licensing System and Coast Guard Vessel Documentation Center.

Last reported at 2015-May-04 08:33 UTC. Time now 2015-May-06 22:34 UTC.
Position N 30°45' W 091°35'.

Length 46 m; draft 3.1 m.

Type: Towing. MMSI: 366961480.

Date/timePositionNaut miles runAvg speedWind from/ knotsBaromVisibWave heightAir tempDewpointWater temp
2015-May-04 08:33N 30°45' W 091°35'3 2.6
2015-May-04 07:33N 30°44' W 091°32'4 4.0
2015-May-04 06:33N 30°44' W 091°28'2 1.6
2015-May-04 05:29N 30°45' W 091°26'3 3.7
2015-May-04 04:33N 30°45' W 091°22'4 3.6
2015-May-04 03:33N 30°41' W 091°21'4 3.7
2015-May-04 02:33N 30°39' W 091°18'4 3.7
2015-May-04 01:33N 30°35' W 091°19'3 3.5
2015-May-04 00:33N 30°34' W 091°15'4 3.5
2015-May-03 23:33N 30°31' W 091°17'2 1.5
2015-May-03 22:33N 30°30' W 091°15'3 2.8
2015-May-03 21:33N 30°31' W 091°12'2 2.0
2015-May-03 20:33N 30°29' W 091°12'0 0.0
2015-May-03 19:33N 30°29' W 091°12'0 0.0
2015-May-03 18:33N 30°29' W 091°12'0 0.0
2015-May-03 17:33N 30°29' W 091°12'0 0.0
2015-May-03 16:33N 30°29' W 091°12'0 0.0
2015-May-03 15:33N 30°29' W 091°12'0 0.0
2015-May-03 14:33N 30°29' W 091°12'0 0.4
2015-May-03 13:34N 30°29' W 091°12'0 0.0
2015-May-03 12:33N 30°29' W 091°12'0 0.0
2015-May-03 11:33N 30°29' W 091°12'0 0.0
2015-May-03 10:33N 30°29' W 091°12'0 0.0
2015-May-03 09:33N 30°29' W 091°12'0 0.0
2015-May-03 08:33N 30°29' W 091°12'0 0.0
2015-May-03 07:33N 30°29' W 091°12'0 0.1
2015-May-03 06:33N 30°29' W 091°12'4 3.9
2015-May-03 05:33N 30°25' W 091°12'5 4.6
2015-May-03 04:33N 30°21' W 091°14'4 4.3
2015-May-03 03:32N 30°20' W 091°09'3 3.3
2015-May-03 02:33N 30°19' W 091°12'7 2.2
2015-May-02 23:18N 30°12' W 091°09'32 1.7
2015-May-02 04:29N 30°03' W 090°34'27 1.4
2015-May-01 09:14N 29°57' W 090°03'0 0.0
2015-May-01 08:29N 29°57' W 090°03'0 0.0
2015-May-01 07:13N 29°57' W 090°03'0 0.0
2015-May-01 06:22N 29°57' W 090°03'2 2.0
2015-May-01 05:19N 29°57' W 090°01'3 3.5
2015-May-01 04:33N 29°55' W 089°58'3 0.6
2015-Apr-30 23:28N 29°52' W 089°57'4 0.5
2015-Apr-30 15:30N 29°56' W 089°59'4 3.7
2015-Apr-30 14:32N 29°56' W 090°03'4 4.3
2015-Apr-30 13:33N 29°55' W 090°08'4 3.6
2015-Apr-30 12:27N 29°55' W 090°12'6 6.5
2015-Apr-30 11:33N 29°56' W 090°19'7 6.4
2015-Apr-30 10:31N 29°60' W 090°26'6 4.5
2015-Apr-30 09:08N 30°03' W 090°32'31 4.2
2015-Apr-30 01:33N 30°12' W 091°07'3 1.1
2015-Apr-29 22:24N 30°15' W 091°07'7 6.9
2015-Apr-29 21:24N 30°18' W 091°14'4 5.2
2015-Apr-29 20:33N 30°21' W 091°10'4 4.2
2015-Apr-29 19:33N 30°24' W 091°12'0 0.1
2015-Apr-29 18:33N 30°24' W 091°12'0 0.1
2015-Apr-29 17:33N 30°24' W 091°12'7 6.9
2015-Apr-29 16:33N 30°31' W 091°12'3 3.4
2015-Apr-29 15:33N 30°31' W 091°16'3 3.4
2015-Apr-29 14:33N 30°34' W 091°18'7 6.3
2015-Apr-29 13:28N 30°41' W 091°21'  
Track history (hours):
 
Tides and Currents Weather Stations Pressure Air Temp Water Temp Dewpoint Dewpoint Depression Visibility Wind Speed Wind Dir Waves Ship Positions

P. B. Shah

Owner: INGRAM BARGE COMPANY, Nashville, TN. More information available from US FCC via Universal Licensing System and Coast Guard Vessel Documentation Center.

Last reported at 2015-May-04 08:33 UTC. Time now 2015-May-06 22:34 UTC.
Position N 30°45' W 091°35'.

Length 46 m; draft 3.1 m.

Type: Towing. MMSI: 366961480.

Date/timePositionNaut miles runAvg speedWind from/ knotsBaromVisibWave heightAir tempDewpointWater temp
2015-May-04 08:33N 30°45' W 091°35'3 2.6
2015-May-04 07:33N 30°44' W 091°32'4 4.0
2015-May-04 06:33N 30°44' W 091°28'2 1.6
2015-May-04 05:29N 30°45' W 091°26'3 3.7
2015-May-04 04:33N 30°45' W 091°22'4 3.6
2015-May-04 03:33N 30°41' W 091°21'4 3.7
2015-May-04 02:33N 30°39' W 091°18'4 3.7
2015-May-04 01:33N 30°35' W 091°19'3 3.5
2015-May-04 00:33N 30°34' W 091°15'4 3.5
2015-May-03 23:33N 30°31' W 091°17'2 1.5
2015-May-03 22:33N 30°30' W 091°15'3 2.8
2015-May-03 21:33N 30°31' W 091°12'2 2.0
2015-May-03 20:33N 30°29' W 091°12'0 0.0
2015-May-03 19:33N 30°29' W 091°12'0 0.0
2015-May-03 18:33N 30°29' W 091°12'0 0.0
2015-May-03 17:33N 30°29' W 091°12'0 0.0
2015-May-03 16:33N 30°29' W 091°12'0 0.0
2015-May-03 15:33N 30°29' W 091°12'0 0.0
2015-May-03 14:33N 30°29' W 091°12'0 0.4
2015-May-03 13:34N 30°29' W 091°12'0 0.0
2015-May-03 12:33N 30°29' W 091°12'0 0.0
2015-May-03 11:33N 30°29' W 091°12'0 0.0
2015-May-03 10:33N 30°29' W 091°12'0 0.0
2015-May-03 09:33N 30°29' W 091°12'0 0.0
2015-May-03 08:33N 30°29' W 091°12'0 0.0
2015-May-03 07:33N 30°29' W 091°12'0 0.1
2015-May-03 06:33N 30°29' W 091°12'4 3.9
2015-May-03 05:33N 30°25' W 091°12'5 4.6
2015-May-03 04:33N 30°21' W 091°14'4 4.3
2015-May-03 03:32N 30°20' W 091°09'3 3.3
2015-May-03 02:33N 30°19' W 091°12'7 2.2
2015-May-02 23:18N 30°12' W 091°09'32 1.7
2015-May-02 04:29N 30°03' W 090°34'27 1.4
2015-May-01 09:14N 29°57' W 090°03'0 0.0
2015-May-01 08:29N 29°57' W 090°03'0 0.0
2015-May-01 07:13N 29°57' W 090°03'0 0.0
2015-May-01 06:22N 29°57' W 090°03'2 2.0
2015-May-01 05:19N 29°57' W 090°01'3 3.5
2015-May-01 04:33N 29°55' W 089°58'3 0.6
2015-Apr-30 23:28N 29°52' W 089°57'4 0.5
2015-Apr-30 15:30N 29°56' W 089°59'4 3.7
2015-Apr-30 14:32N 29°56' W 090°03'4 4.3
2015-Apr-30 13:33N 29°55' W 090°08'4 3.6
2015-Apr-30 12:27N 29°55' W 090°12'6 6.5
2015-Apr-30 11:33N 29°56' W 090°19'7 6.4
2015-Apr-30 10:31N 29°60' W 090°26'6 4.5
2015-Apr-30 09:08N 30°03' W 090°32'31 4.2
2015-Apr-30 01:33N 30°12' W 091°07'3 1.1
2015-Apr-29 22:24N 30°15' W 091°07'7 6.9
2015-Apr-29 21:24N 30°18' W 091°14'4 5.2
2015-Apr-29 20:33N 30°21' W 091°10'4 4.2
2015-Apr-29 19:33N 30°24' W 091°12'0 0.1
2015-Apr-29 18:33N 30°24' W 091°12'0 0.1
2015-Apr-29 17:33N 30°24' W 091°12'7 6.9
2015-Apr-29 16:33N 30°31' W 091°12'3 3.4
2015-Apr-29 15:33N 30°31' W 091°16'3 3.4
2015-Apr-29 14:33N 30°34' W 091°18'7 6.3
2015-Apr-29 13:28N 30°41' W 091°21'  

Dump ship's entire track history